Time;durP1;ratioP1;P1;durP2;ratioP2;P2;SDS_P1;SDS_P2;PMS_P1;PMS_P2;Temp;Humidity;BMP_temperature;BMP_pressure;BME280_temperature;BME280_humidity;BME280_pressure;Samples;Min_cycle;Max_cycle;Signal;HPM_P1;HPM_P2
2021/05/06 00:07:39;;;;;;;5.07;0.70;;;13.00;80.00;;;;;;5033278;28;20029;-70
2021/05/06 00:32:07;;;;;;;2.03;0.73;;;12.70;86.40;;;;;;5032968;28;20041;-70
2021/05/06 00:34:34;;;;;;;2.67;1.00;;;12.70;86.90;;;;;;5032999;28;20041;-68
2021/05/06 00:37:00;;;;;;;1.15;1.00;;;12.70;86.70;;;;;;5032910;28;20036;-69
2021/05/06 00:39:34;;;;;;;4.75;1.10;;;12.70;85.90;;;;;;5032923;28;20128;-69
2021/05/06 01:03:49;;;;;;;10.23;0.93;;;12.60;90.40;;;;;;5056575;28;20128;-70
2021/05/06 01:06:07;;;;;;;9.00;1.00;;;12.60;91.20;;;;;;5056212;28;20049;-69
2021/05/06 01:08:56;;;;;;;1.00;0.60;;;12.60;91.70;;;;;;5056456;28;20025;-69
2021/05/06 01:12:04;;;;;;;0.40;0.40;;;12.60;93.10;;;;;;5056383;28;20033;-71
2021/05/06 01:17:33;;;;;;;0.85;0.55;;;12.70;94.20;;;;;;5056031;28;20032;-68
2021/05/06 01:19:58;;;;;;;0.57;0.30;;;12.60;94.40;;;;;;5038194;28;20389;-68
2021/05/06 01:22:24;;;;;;;0.50;0.50;;;12.40;95.30;;;;;;5038154;28;20082;-70
2021/05/06 01:24:55;;;;;;;0.30;0.30;;;12.30;96.50;;;;;;5056106;28;20528;-68
2021/05/06 01:27:33;;;;;;;0.40;0.40;;;12.20;96.90;;;;;;5056148;28;20017;-71
2021/05/06 01:32:43;;;;;;;0.95;0.47;;;12.10;96.40;;;;;;5055918;28;20482;-72
2021/05/06 01:35:15;;;;;;;0.90;0.32;;;11.90;97.60;;;;;;5055938;28;20025;-71
2021/05/06 01:43:07;;;;;;;1.40;0.38;;;11.90;97.90;;;;;;5055743;28;20036;-72
2021/05/06 01:46:00;;;;;;;4.78;0.90;;;11.90;98.10;;;;;;5055736;28;20454;-70
2021/05/06 01:59:29;;;;;;;0.98;0.98;;;12.10;96.30;;;;;;5054333;28;20060;-66
2021/05/06 02:01:52;;;;;;;0.68;0.40;;;12.10;96.30;;;;;;5054545;28;20041;-68
2021/05/06 02:04:18;;;;;;;0.88;0.40;;;12.10;95.50;;;;;;5055356;28;20123;-68
2021/05/06 02:06:46;;;;;;;0.20;0.20;;;12.10;95.50;;;;;;5055335;28;20037;-69
2021/05/06 02:09:12;;;;;;;1.85;0.55;;;12.10;95.40;;;;;;5037398;28;20021;-68
2021/05/06 02:11:37;;;;;;;2.38;0.57;;;12.10;95.60;;;;;;5055330;28;20124;-69
2021/05/06 02:14:06;;;;;;;0.30;0.30;;;12.20;96.10;;;;;;5055115;28;20033;-68
2021/05/06 02:16:38;;;;;;;0.50;0.50;;;12.30;95.90;;;;;;5055100;28;20086;-71
2021/05/06 02:19:04;;;;;;;;;;;12.40;95.90;;;;;;5055636;28;20466;-68
2021/05/06 02:21:31;;;;;;;0.30;0.30;;;12.30;95.30;;;;;;5037215;28;19904;-67
2021/05/06 02:23:57;;;;;;;0.30;0.30;;;12.20;95.60;;;;;;5055268;28;20075;-67
2021/05/06 02:26:24;;;;;;;1.98;0.55;;;12.20;96.40;;;;;;5054936;28;20408;-69
2021/05/06 02:28:50;;;;;;;0.28;0.22;;;12.10;96.50;;;;;;5037009;28;20029;-67
2021/05/06 02:31:16;;;;;;;6.10;1.00;;;12.00;96.60;;;;;;5054922;28;20021;-69
2021/05/06 02:33:44;;;;;;;0.93;0.50;;;12.00;95.50;;;;;;5054689;28;20033;-69
2021/05/06 02:36:11;;;;;;;0.82;0.43;;;11.90;95.30;;;;;;5055044;28;20056;-67
2021/05/06 02:38:38;;;;;;;0.50;0.50;;;12.00;94.70;;;;;;5036806;28;20082;-70
2021/05/06 02:41:04;;;;;;;1.08;0.65;;;12.00;94.90;;;;;;5054761;28;20025;-68
2021/05/06 02:43:30;;;;;;;2.15;0.57;;;11.90;94.60;;;;;;5036740;28;20102;-69
2021/05/06 02:45:56;;;;;;;2.00;0.57;;;11.80;95.00;;;;;;5036681;28;20473;-69
2021/05/06 02:48:22;;;;;;;0.88;0.50;;;11.70;95.10;;;;;;5054787;28;20024;-69
2021/05/06 02:50:54;;;;;;;0.38;0.35;;;11.60;95.00;;;;;;5054550;28;20033;-69
2021/05/06 02:53:23;;;;;;;0.60;0.60;;;11.60;95.00;;;;;;5054405;28;20029;-70
2021/05/06 03:04:01;;;;;;;1.23;0.50;;;11.40;96.10;;;;;;5054032;28;20051;-69
2021/05/06 03:06:30;;;;;;;0.60;0.50;;;11.40;98.00;;;;;;5054233;28;20032;-70
2021/05/06 03:09:17;;;;;;;0.40;0.40;;;11.40;97.70;;;;;;5054123;28;20036;-68
2021/05/06 03:11:50;;;;;;;1.45;0.73;;;;;;;;;;5053150;28;20062;-67
2021/05/06 03:14:44;;;;;;;0.73;0.40;;;;;;;;;;5053993;28;20025;-67
2021/05/06 03:22:50;;;;;;;0.30;0.30;;;;;;;;;;5053656;28;20036;-67
2021/05/06 03:25:21;;;;;;;2.13;0.70;;;;;;;;;;5053892;28;20409;-68
2021/05/06 03:28:01;;;;;;;1.00;0.90;;;;;;;;;;5053775;28;20389;-69
2021/05/06 03:46:51;;;;;;;0.50;0.50;;;10.90;99.90;;;;;;5053207;28;20032;-69
2021/05/06 04:22:22;;;;;;;0.60;0.60;;;11.00;99.90;;;;;;5052931;28;20086;-69
2021/05/06 04:27:13;;;;;;;2.25;0.80;;;10.90;99.90;;;;;;5052963;28;20074;-70
2021/05/06 04:35:38;;;;;;;0.43;0.43;;;11.00;99.90;;;;;;5052849;28;20039;-69
2021/05/06 04:38:05;;;;;;;0.45;0.45;;;10.90;99.90;;;;;;5052882;28;20087;-67
2021/05/06 04:40:55;;;;;;;0.85;0.73;;;10.90;99.90;;;;;;5052752;28;20017;-69
2021/05/06 04:54:27;;;;;;;0.70;0.55;;;10.70;99.90;;;;;;5052466;28;20091;-69
2021/05/06 05:04:34;;;;;;;0.43;0.43;;;10.90;99.90;;;;;;5052609;28;20464;-68
2021/05/06 05:17:44;;;;;;;0.60;0.60;;;11.10;99.40;;;;;;5052173;28;20032;-68
2021/05/06 05:20:21;;;;;;;0.43;0.43;;;11.10;99.60;;;;;;5052375;28;20027;-67
2021/05/06 05:25:41;;;;;;;0.88;0.70;;;11.20;99.70;;;;;;5052246;28;20036;-69
2021/05/06 05:28:08;;;;;;;1.33;0.93;;;11.30;99.40;;;;;;5052704;28;20032;-68
2021/05/06 05:30:37;;;;;;;0.75;0.73;;;11.40;99.00;;;;;;5052257;28;20116;-67
2021/05/06 05:33:24;;;;;;;0.68;0.68;;;11.40;98.90;;;;;;5034388;28;20116;-70
2021/05/06 05:46:44;;;;;;;1.02;0.60;;;11.40;99.20;;;;;;5055532;28;20121;-69
2021/05/06 05:56:50;;;;;;;2.72;0.70;;;11.40;98.30;;;;;;5055627;28;20108;-68
2021/05/06 05:59:16;;;;;;;3.05;0.98;;;11.40;98.00;;;;;;5033993;28;20059;-68
2021/05/06 06:01:42;;;;;;;0.80;0.55;;;11.50;98.60;;;;;;5035484;28;20021;-69
2021/05/06 06:04:08;;;;;;;0.70;0.70;;;11.50;97.80;;;;;;5035149;28;20389;-70
2021/05/06 06:06:34;;;;;;;2.08;0.63;;;11.40;97.90;;;;;;5035050;28;20025;-68
2021/05/06 06:09:00;;;;;;;0.88;0.60;;;11.40;98.30;;;;;;5033639;28;20021;-69
2021/05/06 06:11:26;;;;;;;0.50;0.50;;;11.40;98.10;;;;;;5034835;28;20032;-69
2021/05/06 06:13:53;;;;;;;0.50;0.50;;;11.50;98.10;;;;;;5033664;28;20128;-67
2021/05/06 06:18:53;;;;;;;0.40;0.40;;;11.50;98.10;;;;;;5035219;28;20029;-69
2021/05/06 06:21:43;;;;;;;0.50;0.50;;;11.50;98.00;;;;;;5035123;28;20044;-71
2021/05/06 06:24:10;;;;;;;0.57;0.57;;;11.60;97.70;;;;;;5035148;28;20030;-68
2021/05/06 06:26:36;;;;;;;0.80;0.40;;;11.70;97.90;;;;;;5035127;28;20071;-69
2021/05/06 06:29:12;;;;;;;1.13;1.00;;;11.80;97.70;;;;;;5034990;28;20112;-68
2021/05/06 06:31:44;;;;;;;1.98;0.60;;;11.90;97.20;;;;;;5034991;28;20084;-70
2021/05/06 06:34:10;;;;;;;0.73;0.50;;;12.00;96.60;;;;;;5033601;28;20033;-71
2021/05/06 06:36:38;;;;;;;0.63;0.63;;;12.10;96.50;;;;;;5033511;28;20029;-71
2021/05/06 06:39:04;;;;;;;1.20;0.65;;;12.30;95.30;;;;;;5034709;28;20053;-70
2021/05/06 06:41:30;;;;;;;1.73;0.57;;;12.40;95.40;;;;;;5034687;28;20114;-68
2021/05/06 06:44:00;;;;;;;2.10;0.75;;;12.60;96.00;;;;;;5032733;28;20025;-69
2021/05/06 06:46:26;;;;;;;6.07;0.85;;;12.70;95.20;;;;;;5033136;28;20549;-71
2021/05/06 06:48:51;;;;;;;0.50;0.50;;;13.00;95.90;;;;;;5034500;28;20155;-70
2021/05/06 06:51:17;;;;;;;0.85;0.70;;;13.00;94.60;;;;;;5032994;28;20501;-70
2021/05/06 06:53:43;;;;;;;0.30;0.30;;;13.00;94.20;;;;;;5034261;28;20112;-68
2021/05/06 06:56:10;;;;;;;0.50;0.50;;;13.10;91.70;;;;;;5033174;28;20107;-71
2021/05/06 06:58:39;;;;;;;0.75;0.47;;;13.10;93.80;;;;;;5047647;28;20044;-69
2021/05/06 07:01:04;;;;;;;0.60;0.60;;;13.10;92.50;;;;;;5054183;28;20512;-71
2021/05/06 07:03:30;;;;;;;0.40;0.40;;;13.30;92.70;;;;;;5036275;28;20072;-69
2021/05/06 07:05:56;;;;;;;1.45;0.65;;;13.50;91.60;;;;;;5036177;28;20060;-69
2021/05/06 07:08:34;;;;;;;1.30;0.90;;;13.70;91.60;;;;;;5054117;28;20028;-71
2021/05/06 07:11:03;;;;;;;0.98;0.50;;;13.80;91.30;;;;;;5053856;28;20386;-71
2021/05/06 07:13:30;;;;;;;1.27;0.88;;;13.50;91.70;;;;;;5036039;28;20033;-69
2021/05/06 07:16:07;;;;;;;0.73;0.50;;;13.40;91.30;;;;;;5053929;28;20025;-71
2021/05/06 07:18:34;;;;;;;0.50;0.50;;;13.60;91.20;;;;;;5053882;28;20064;-70
2021/05/06 07:21:01;;;;;;;0.75;0.75;;;13.70;90.20;;;;;;5053675;28;20029;-69
2021/05/06 07:23:27;;;;;;;0.20;0.20;;;13.80;88.60;;;;;;5053798;28;20025;-71
2021/05/06 07:25:55;;;;;;;0.95;0.60;;;14.00;86.80;;;;;;5053740;28;20032;-70
2021/05/06 07:28:29;;;;;;;0.70;0.70;;;14.20;87.10;;;;;;5035708;28;20032;-71
2021/05/06 07:30:55;;;;;;;0.63;0.40;;;14.40;88.00;;;;;;5053743;28;20032;-70
2021/05/06 07:33:21;;;;;;;0.43;0.38;;;14.40;85.20;;;;;;5035719;28;20033;-70
2021/05/06 07:35:47;;;;;;;0.82;0.70;;;14.40;87.90;;;;;;5035752;28;20033;-70
2021/05/06 07:38:13;;;;;;;0.50;0.50;;;14.50;85.30;;;;;;5053362;28;20029;-69
2021/05/06 07:40:40;;;;;;;0.45;0.45;;;14.60;84.20;;;;;;5035496;28;20495;-70
2021/05/06 07:43:07;;;;;;;0.80;0.45;;;14.70;84.40;;;;;;5035573;28;20028;-69
2021/05/06 07:45:33;;;;;;;0.40;0.32;;;14.70;83.10;;;;;;5053431;28;20036;-72
2021/05/06 07:48:00;;;;;;;2.50;0.70;;;14.80;81.60;;;;;;5053589;28;20040;-71
2021/05/06 07:50:28;;;;;;;0.30;0.30;;;14.90;80.40;;;;;;5035412;28;20025;-68
2021/05/06 07:53:02;;;;;;;0.30;0.30;;;14.90;79.10;;;;;;5035193;28;20033;-71
2021/05/06 07:55:28;;;;;;;0.30;0.30;;;15.00;77.30;;;;;;5053337;28;20477;-70
2021/05/06 07:57:54;;;;;;;0.40;0.40;;;14.80;76.80;;;;;;5052296;28;20095;-72
2021/05/06 08:00:21;;;;;;;0.63;0.40;;;14.90;78.70;;;;;;5035183;28;20025;-72
2021/05/06 08:02:49;;;;;;;0.57;0.30;;;15.00;78.00;;;;;;5034792;28;20485;-71
2021/05/06 08:05:15;;;;;;;0.50;0.50;;;15.20;76.30;;;;;;5053099;28;20044;-72
2021/05/06 08:07:42;;;;;;;0.30;0.30;;;15.40;74.60;;;;;;5051508;28;20036;-76
2021/05/06 08:10:09;;;;;;;0.32;0.32;;;15.40;75.90;;;;;;5051678;28;20116;-70
2021/05/06 08:12:35;;;;;;;0.30;0.30;;;15.40;73.60;;;;;;5034762;28;20363;-71
2021/05/06 08:15:04;;;;;;;0.30;0.30;;;;;;;;;;5052881;28;20025;-68
2021/05/06 08:17:30;;;;;;;0.38;0.38;;;15.70;73.20;;;;;;5053030;28;20032;-70
2021/05/06 08:19:57;;;;;;;0.32;0.32;;;15.70;70.60;;;;;;5053161;28;20028;-69
2021/05/06 08:22:23;;;;;;;0.30;0.30;;;15.80;73.40;;;;;;5052998;28;20028;-71
2021/05/06 08:24:48;;;;;;;0.22;0.22;;;16.00;72.00;;;;;;5052941;28;20470;-70
2021/05/06 08:27:14;;;;;;;0.65;0.65;;;16.00;71.80;;;;;;5052897;28;20107;-73
2021/05/06 08:29:40;;;;;;;0.85;0.70;;;16.10;71.60;;;;;;5052768;28;20025;-69
2021/05/06 08:32:06;;;;;;;0.30;0.30;;;16.30;68.70;;;;;;5052787;28;20037;-72
2021/05/06 08:34:32;;;;;;;0.65;0.38;;;16.50;66.40;;;;;;5034822;28;20504;-69
2021/05/06 08:36:58;;;;;;;0.20;0.20;;;16.70;68.10;;;;;;5052749;28;20040;-71
2021/05/06 08:39:24;;;;;;;0.25;0.25;;;16.80;69.90;;;;;;5034790;28;20426;-69
2021/05/06 08:41:50;;;;;;;0.30;0.30;;;16.80;69.00;;;;;;5034792;28;20040;-69
2021/05/06 08:44:18;;;;;;;1.45;0.50;;;16.70;66.40;;;;;;5034614;28;20037;-69
2021/05/06 08:47:03;;;;;;;0.55;0.50;;;17.00;69.50;;;;;;5034625;28;20532;-71
2021/05/06 08:49:31;;;;;;;0.50;0.50;;;17.10;67.00;;;;;;5052685;28;20028;-70
2021/05/06 08:51:59;;;;;;;0.20;0.20;;;17.50;64.50;;;;;;5052526;28;20052;-70
2021/05/06 08:54:25;;;;;;;0.63;0.57;;;17.80;64.10;;;;;;5034582;28;20064;-70
2021/05/06 08:56:51;;;;;;;0.57;0.45;;;17.70;63.00;;;;;;5034657;28;20064;-70
2021/05/06 08:59:17;;;;;;;0.40;0.40;;;17.70;62.60;;;;;;5052588;28;20486;-70
2021/05/06 09:01:43;;;;;;;0.30;0.30;;;18.20;60.00;;;;;;5052516;28;20032;-71
2021/05/06 09:04:09;;;;;;;0.65;0.43;;;18.20;60.80;;;;;;5034638;28;20543;-71
2021/05/06 09:06:35;;;;;;;0.40;0.40;;;18.40;60.70;;;;;;5052475;28;20021;-71
2021/05/06 09:09:04;;;;;;;0.32;0.32;;;19.00;60.00;;;;;;5036663;28;20032;-71
2021/05/06 09:11:37;;;;;;;1.23;0.50;;;19.10;57.40;;;;;;5056303;28;20025;-71
2021/05/06 09:14:07;;;;;;;0.73;0.50;;;19.10;56.70;;;;;;5056267;28;20033;-71
2021/05/06 09:16:40;;;;;;;0.40;0.40;;;18.90;58.20;;;;;;5038652;28;20485;-71
2021/05/06 09:19:12;;;;;;;0.65;0.60;;;18.90;57.20;;;;;;5056282;28;20028;-71
2021/05/06 09:21:42;;;;;;;0.63;0.40;;;18.60;56.30;;;;;;5056199;28;20343;-69
2021/05/06 09:24:20;;;;;;;0.43;0.40;;;18.80;57.00;;;;;;5038265;28;20466;-71
2021/05/06 09:26:47;;;;;;;0.50;0.50;;;18.80;57.70;;;;;;5056143;28;20061;-72
2021/05/06 09:29:34;;;;;;;0.77;0.77;;;19.50;60.10;;;;;;5038099;28;20025;-70
2021/05/06 09:32:22;;;;;;;1.25;0.60;;;;;;;;;;5056006;28;20104;-70
2021/05/06 09:34:51;;;;;;;0.65;0.60;;;20.10;56.00;;;;;;5038030;28;20033;-70
2021/05/06 09:37:38;;;;;;;0.40;0.40;;;20.60;54.10;;;;;;5055915;28;20419;-70
2021/05/06 09:40:07;;;;;;;0.65;0.57;;;20.30;53.90;;;;;;5055923;28;20550;-69
2021/05/06 09:42:43;;;;;;;0.50;0.50;;;20.40;54.10;;;;;;5055570;28;20036;-69
2021/05/06 09:45:23;;;;;;;0.70;0.70;;;20.40;51.80;;;;;;5055520;28;20400;-69
2021/05/06 09:48:11;;;;;;;0.82;0.55;;;20.40;52.50;;;;;;5037791;28;20028;-70
2021/05/06 09:50:38;;;;;;;1.05;0.68;;;20.20;51.00;;;;;;5055585;28;20029;-69
2021/05/06 09:53:12;;;;;;;0.60;0.60;;;19.90;54.00;;;;;;5055494;28;20033;-68
2021/05/06 09:55:43;;;;;;;0.80;0.80;;;20.00;52.50;;;;;;5055466;28;20037;-69
2021/05/06 09:58:23;;;;;;;0.60;0.60;;;20.00;54.30;;;;;;5037051;28;20091;-69
2021/05/06 10:00:51;;;;;;;0.40;0.40;;;19.60;55.10;;;;;;5055286;28;20043;-69
2021/05/06 10:03:20;;;;;;;1.25;0.70;;;20.00;52.60;;;;;;5037276;28;20079;-69
2021/05/06 10:05:48;;;;;;;0.77;0.60;;;19.70;53.70;;;;;;5055362;28;20120;-69
2021/05/06 10:08:14;;;;;;;1.10;1.00;;;19.90;55.20;;;;;;5055275;28;20110;-69
2021/05/06 10:10:43;;;;;;;0.90;0.90;;;20.10;53.50;;;;;;5055035;28;20025;-69
2021/05/06 10:13:10;;;;;;;1.10;1.10;;;19.60;53.10;;;;;;5054974;28;20071;-69
2021/05/06 10:15:38;;;;;;;1.00;1.00;;;19.60;55.20;;;;;;5054917;28;20367;-70
2021/05/06 10:18:04;;;;;;;1.20;1.20;;;19.30;54.60;;;;;;5053904;28;20075;-69
2021/05/06 10:20:31;;;;;;;1.23;1.13;;;20.20;54.40;;;;;;5052989;28;20031;-70
2021/05/06 10:22:57;;;;;;;0.77;0.77;;;20.40;56.80;;;;;;5035162;28;20029;-70
2021/05/06 10:25:25;;;;;;;0.55;0.55;;;20.90;51.40;;;;;;5054485;28;20049;-70
2021/05/06 10:27:52;;;;;;;0.63;0.60;;;21.50;54.00;;;;;;5054588;28;20100;-70
2021/05/06 10:30:19;;;;;;;1.35;0.65;;;;;;;;;;5036542;28;20396;-70
2021/05/06 10:32:46;;;;;;;0.98;0.70;;;23.10;49.00;;;;;;5036611;28;20254;-70
2021/05/06 10:35:22;;;;;;;1.20;0.90;;;23.40;50.70;;;;;;5054789;28;20078;-70
2021/05/06 10:37:56;;;;;;;1.00;0.60;;;23.90;48.00;;;;;;5052777;28;20067;-71
2021/05/06 10:40:22;;;;;;;0.65;0.63;;;24.90;46.90;;;;;;5036075;28;20057;-72
2021/05/06 10:42:52;;;;;;;0.88;0.88;;;24.90;44.70;;;;;;5054107;28;20536;-72
2021/05/06 10:45:21;;;;;;;0.70;0.50;;;;;;;;;;5054529;28;20036;-71
2021/05/06 10:47:50;;;;;;;0.80;0.80;;;;;;;;;;5036348;28;20347;-72
2021/05/06 10:50:21;;;;;;;0.65;0.50;;;;;;;;;;5054210;28;20021;-72
2021/05/06 10:52:52;;;;;;;0.40;0.40;;;;;;;;;;5036364;28;20381;-72
2021/05/06 10:55:38;;;;;;;0.90;0.90;;;;;;;;;;5036506;28;20420;-72
2021/05/06 10:58:23;;;;;;;1.00;0.57;;;;;;;;;;5032123;28;20046;-73
2021/05/06 11:01:05;;;;;;;1.38;0.95;;;;;;;;;;5032706;28;20087;-73
2021/05/06 11:03:32;;;;;;;0.88;0.60;;;;;;;;;;5034250;28;20056;-73
2021/05/06 11:05:59;;;;;;;2.15;0.47;;;;;;;;;;5034228;28;20025;-73
2021/05/06 11:08:26;;;;;;;0.35;0.35;;;;;;;;;;5034093;28;20029;-73
2021/05/06 11:10:52;;;;;;;0.75;0.60;;;;;;;;;;5033851;28;20036;-73
2021/05/06 11:13:21;;;;;;;0.43;0.40;;;;;;;;;;5033823;28;20033;-73
2021/05/06 11:15:48;;;;;;;0.80;0.52;;;;;;;;;;5031459;28;20021;-71
2021/05/06 11:18:35;;;;;;;1.10;0.90;;;;;;;;;;5031536;28;20108;-72
2021/05/06 11:21:01;;;;;;;0.60;0.60;;;;;;;;;;5033079;28;20032;-71
2021/05/06 11:23:29;;;;;;;1.08;0.60;;;;;;;;;;5032963;28;20029;-73
2021/05/06 11:26:03;;;;;;;0.50;0.50;;;;;;;;;;5033685;28;20060;-72
2021/05/06 11:28:29;;;;;;;0.43;0.43;;;;;;;;;;5033656;28;20088;-73
2021/05/06 11:30:55;;;;;;;0.50;0.50;;;;;;;;;;5032125;28;20028;-71
2021/05/06 11:33:22;;;;;;;0.77;0.77;;;;;;;;;;5032704;28;20034;-71
2021/05/06 11:35:58;;;;;;;0.63;0.60;;;;;;;;;;5032219;28;20386;-72
2021/05/06 11:38:42;;;;;;;0.40;0.40;;;;;;;;;;5032979;28;20030;-71
2021/05/06 11:41:13;;;;;;;0.40;0.40;;;;;;;;;;5033468;28;20017;-73
2021/05/06 11:43:48;;;;;;;1.70;0.52;;;;;;;;;;5033666;28;20163;-74
2021/05/06 11:46:14;;;;;;;0.70;0.40;;;;;;;;;;5033205;28;20018;-73
2021/05/06 11:48:45;;;;;;;0.40;0.40;;;;;;;;;;5033238;28;20025;-71
2021/05/06 11:51:23;;;;;;;0.43;0.43;;;;;;;;;;5031835;28;20421;-73
2021/05/06 11:54:01;;;;;;;0.63;0.57;;;;;;;;;;5031496;28;20029;-73
2021/05/06 11:56:27;;;;;;;0.68;0.55;;;;;;;;;;5032554;28;20056;-72
2021/05/06 11:58:53;;;;;;;1.30;0.50;;;;;;;;;;5048652;28;20045;-72
2021/05/06 12:01:29;;;;;;;0.50;0.50;;;;;;;;;;5052585;28;20377;-74
2021/05/06 12:03:56;;;;;;;1.25;0.63;;;;;;;;;;5050521;28;20071;-72
2021/05/06 12:06:27;;;;;;;0.50;0.50;;;;;;;;;;5052549;28;20074;-73
2021/05/06 12:08:53;;;;;;;1.02;0.55;;;;;;;;;;5049426;28;20021;-72
2021/05/06 12:11:19;;;;;;;0.30;0.30;;;;;;;;;;5034198;28;20040;-72
2021/05/06 12:13:46;;;;;;;0.70;0.70;;;;;;;;;;5051581;28;20158;-72
2021/05/06 12:16:19;;;;;;;0.60;0.60;;;;;;;;;;5052152;28;20029;-72
2021/05/06 12:18:56;;;;;;;0.45;0.40;;;;;;;;;;5034519;28;20112;-72
2021/05/06 12:21:31;;;;;;;0.57;0.57;;;;;;;;;;5052889;28;20025;-73
2021/05/06 12:23:58;;;;;;;1.45;0.68;;;;;;;;;;5033558;28;20029;-73
2021/05/06 12:26:25;;;;;;;0.70;0.70;;;;;;;;;;5051636;28;20024;-74
2021/05/06 12:28:51;;;;;;;1.10;0.60;;;;;;;;;;5052574;28;20020;-72
2021/05/06 12:31:17;;;;;;;0.50;0.50;;;;;;;;;;5052601;28;20059;-71
2021/05/06 12:33:43;;;;;;;0.40;0.40;;;;;;;;;;5034359;28;20393;-72
2021/05/06 12:36:13;;;;;;;0.50;0.50;;;;;;;;;;5052555;28;20116;-71
2021/05/06 12:38:40;;;;;;;0.98;0.65;;;;;;;;;;5052649;28;20037;-72
2021/05/06 12:41:10;;;;;;;0.40;0.40;;;;;;;;;;5034613;28;20024;-71
2021/05/06 12:43:45;;;;;;;0.60;0.60;;;;;;;;;;5036186;28;20546;-71
2021/05/06 12:46:11;;;;;;;0.55;0.55;;;;;;;;;;5057009;28;20029;-71
2021/05/06 12:48:43;;;;;;;0.57;0.57;;;37.40;29.10;;;;;;5056656;28;20028;-72
2021/05/06 12:51:11;;;;;;;0.52;0.45;;;37.50;29.00;;;;;;5056590;28;20031;-70
2021/05/06 12:53:56;;;;;;;0.40;0.40;;;37.80;36.70;;;;;;5056612;28;20494;-71
2021/05/06 12:56:25;;;;;;;0.47;0.47;;;;;;;;;;5056519;28;20481;-71
2021/05/06 12:58:52;;;;;;;0.40;0.40;;;;;;;;;;5056540;28;20405;-72
2021/05/06 13:01:29;;;;;;;0.75;0.50;;;35.90;29.10;;;;;;5056379;28;20022;-69
2021/05/06 13:03:58;;;;;;;0.38;0.38;;;;;;;;;;5038320;28;20488;-70
2021/05/06 13:06:30;;;;;;;0.30;0.30;;;;;;;;;;5056339;28;20158;-71
2021/05/06 13:08:58;;;;;;;0.30;0.30;;;;;;;;;;5038560;28;20078;-70
2021/05/06 13:11:25;;;;;;;1.58;0.80;;;;;;;;;;5038374;28;20098;-71
2021/05/06 13:13:53;;;;;;;0.30;0.30;;;;;;;;;;5038109;28;20029;-70
2021/05/06 13:16:38;;;;;;;0.40;0.40;;;;;;;;;;5056032;28;20017;-72
2021/05/06 13:19:05;;;;;;;0.50;0.50;;;;;;;;;;5055809;28;20029;-71
2021/05/06 13:21:32;;;;;;;0.60;0.50;;;36.00;29.90;;;;;;5038246;28;20049;-70
2021/05/06 13:24:00;;;;;;;0.45;0.45;;;36.10;30.20;;;;;;5056183;28;20033;-70
2021/05/06 13:26:35;;;;;;;0.65;0.30;;;36.60;29.20;;;;;;5055724;28;20029;-71
2021/05/06 13:29:06;;;;;;;2.25;2.05;;;37.60;35.50;;;;;;5055762;28;20021;-70
2021/05/06 13:31:33;;;;;;;;;;;38.50;29.40;;;;;;5056478;28;20626;-72
2021/05/06 13:34:22;;;;;;;0.40;0.40;;;38.80;28.50;;;;;;5037991;28;20019;-69
2021/05/06 13:37:04;;;;;;;0.50;0.50;;;39.10;28.70;;;;;;5055986;28;20029;-69
2021/05/06 13:39:34;;;;;;;0.40;0.40;;;39.50;28.80;;;;;;5037925;28;20064;-69
2021/05/06 13:42:00;;;;;;;0.60;0.60;;;40.00;28.40;;;;;;5055429;28;20113;-69
2021/05/06 13:44:29;;;;;;;0.30;0.30;;;40.50;28.40;;;;;;5055765;28;20032;-69
2021/05/06 13:47:04;;;;;;;0.80;0.70;;;40.70;27.70;;;;;;5037920;28;20029;-69
2021/05/06 13:49:31;;;;;;;0.50;0.50;;;40.50;27.20;;;;;;5055786;28;20029;-69
2021/05/06 13:51:59;;;;;;;0.40;0.40;;;40.50;27.20;;;;;;5055039;28;20412;-70
2021/05/06 13:54:27;;;;;;;0.60;0.60;;;41.20;27.70;;;;;;5054622;28;20481;-70
2021/05/06 13:56:54;;;;;;;0.32;0.32;;;41.70;45.50;;;;;;5053843;28;20017;-71
2021/05/06 13:59:20;;;;;;;0.52;0.52;;;41.60;27.40;;;;;;5036460;28;20064;-70
2021/05/06 14:01:52;;;;;;;0.38;0.38;;;41.10;26.50;;;;;;5036244;28;20035;-71
2021/05/06 14:04:18;;;;;;;0.50;0.50;;;;;;;;;;5055195;28;20025;-71
2021/05/06 14:06:45;;;;;;;0.40;0.40;;;;;;;;;;5037774;28;20419;-72
2021/05/06 14:09:15;;;;;;;0.50;0.50;;;40.70;26.90;;;;;;5037479;28;20021;-70
2021/05/06 14:11:42;;;;;;;0.50;0.50;;;41.10;27.70;;;;;;5055132;28;20063;-70
2021/05/06 14:14:08;;;;;;;0.50;0.50;;;41.40;27.10;;;;;;5054849;28;20079;-71
2021/05/06 14:16:35;;;;;;;0.52;0.52;;;41.40;27.70;;;;;;5054864;28;20033;-70
2021/05/06 14:19:02;;;;;;;0.38;0.38;;;;;;;;;;5053834;28;20052;-71
2021/05/06 14:21:29;;;;;;;0.43;0.43;;;41.40;26.80;;;;;;5054340;28;20025;-69
2021/05/06 14:23:55;;;;;;;0.47;0.47;;;41.50;26.70;;;;;;5055043;28;20122;-70
2021/05/06 14:26:21;;;;;;;0.35;0.35;;;41.60;27.40;;;;;;5037145;28;20024;-71
2021/05/06 14:28:48;;;;;;;0.52;0.50;;;;;;;;;;5054974;28;20064;-70
2021/05/06 14:31:14;;;;;;;0.20;0.20;;;;;;;;;;5036993;28;20083;-70
2021/05/06 14:33:40;;;;;;;0.63;0.40;;;;;;;;;;5054556;28;20452;-70
2021/05/06 14:36:07;;;;;;;0.32;0.32;;;;;;;;;;5036625;28;20072;-75
2021/05/06 14:38:33;;;;;;;0.43;0.43;;;35.00;30.40;;;;;;5036873;28;20047;-73
2021/05/06 14:40:59;;;;;;;0.35;0.35;;;36.00;30.70;;;;;;5054779;28;20082;-73
2021/05/06 14:43:25;;;;;;;0.63;0.50;;;;;;;;;;5054718;28;20028;-70
2021/05/06 14:45:51;;;;;;;0.47;0.43;;;37.00;71.80;;;;;;5054577;28;20021;-71
2021/05/06 14:48:17;;;;;;;0.40;0.40;;;;;;;;;;5054639;28;20032;-70
2021/05/06 14:50:44;;;;;;;0.70;0.70;;;;;;;;;;5036664;28;20370;-70
2021/05/06 14:53:10;;;;;;;0.60;0.60;;;;;;;;;;5053857;28;20379;-70
2021/05/06 14:55:36;;;;;;;0.52;0.52;;;37.30;30.00;;;;;;5036572;28;20029;-71
2021/05/06 14:58:03;;;;;;;0.60;0.60;;;37.90;29.20;;;;;;5054582;28;20072;-71
2021/05/06 15:00:29;;;;;;;0.50;0.50;;;37.30;29.30;;;;;;5033877;28;20433;-69
2021/05/06 15:02:55;;;;;;;1.17;0.30;;;34.00;30.00;;;;;;5053959;28;20040;-69
2021/05/06 15:05:22;;;;;;;0.68;0.60;;;33.80;30.40;;;;;;5054055;28;20104;-70
2021/05/06 15:07:48;;;;;;;0.50;0.50;;;33.40;32.50;;;;;;5036053;28;20075;-70
2021/05/06 15:10:14;;;;;;;0.30;0.30;;;34.10;32.00;;;;;;5035078;28;20078;-72
2021/05/06 15:12:46;;;;;;;0.40;0.40;;;33.50;31.10;;;;;;5054057;28;20060;-69
2021/05/06 15:15:12;;;;;;;0.60;0.40;;;;;;;;;;5053679;28;20040;-70
2021/05/06 15:17:39;;;;;;;0.30;0.30;;;;;;;;;;5054364;28;20017;-70
2021/05/06 15:20:05;;;;;;;0.55;0.55;;;;;;;;;;5036079;28;20406;-70
2021/05/06 15:22:31;;;;;;;0.40;0.40;;;36.50;29.90;;;;;;5053995;28;20035;-71
2021/05/06 15:24:57;;;;;;;0.60;0.52;;;37.20;30.00;;;;;;5054081;28;20021;-68
2021/05/06 15:27:23;;;;;;;0.52;0.32;;;35.50;30.00;;;;;;5035953;28;20029;-70
2021/05/06 15:29:49;;;;;;;0.60;0.60;;;;;;;;;;5053591;28;20029;-71
2021/05/06 15:32:15;;;;;;;0.50;0.50;;;36.70;30.50;;;;;;5054077;28;20512;-70
2021/05/06 15:34:41;;;;;;;0.73;0.60;;;37.20;50.50;;;;;;5053595;28;20029;-68
2021/05/06 15:37:08;;;;;;;0.50;0.50;;;36.70;29.90;;;;;;5053695;28;20029;-70
2021/05/06 15:39:35;;;;;;;0.60;0.60;;;37.60;29.90;;;;;;5053667;28;20021;-69
2021/05/06 15:42:01;;;;;;;0.60;0.60;;;;;;;;;;5053598;28;20025;-69
2021/05/06 15:44:28;;;;;;;0.55;0.55;;;;;;;;;;5053283;28;20432;-70
2021/05/06 15:47:01;;;;;;;1.08;0.68;;;;;;;;;;5035636;28;20066;-68
2021/05/06 15:49:31;;;;;;;1.48;0.47;;;;;;;;;;5035665;28;20044;-69
2021/05/06 15:51:58;;;;;;;1.08;0.60;;;;;;;;;;5053515;28;20017;-69
2021/05/06 15:54:24;;;;;;;0.43;0.40;;;;;;;;;;5053334;28;20041;-68
2021/05/06 15:56:50;;;;;;;0.60;0.60;;;;;;;;;;5053114;28;20033;-68
2021/05/06 15:59:17;;;;;;;0.63;0.52;;;;;;;;;;5034806;28;20068;-69
2021/05/06 16:01:43;;;;;;;0.50;0.50;;;;;;;;;;5053269;28;20029;-68
2021/05/06 16:04:11;;;;;;;0.63;0.55;;;;;;;;;;5053305;28;20486;-69
2021/05/06 16:06:37;;;;;;;0.50;0.50;;;;;;;;;;5035300;28;20032;-69
2021/05/06 16:09:05;;;;;;;0.73;0.47;;;;;;;;;;5053491;28;20021;-69
2021/05/06 16:11:31;;;;;;;0.50;0.50;;;;;;;;;;5052706;28;20079;-68
2021/05/06 16:13:58;;;;;;;0.45;0.45;;;;;;;;;;5052988;28;20029;-71
2021/05/06 16:16:25;;;;;;;0.52;0.50;;;;;;;;;;5035129;28;20120;-69
2021/05/06 16:18:51;;;;;;;1.65;0.73;;;;;;;;;;5034641;28;20024;-70
2021/05/06 16:21:17;;;;;;;0.85;0.60;;;;;;;;;;5035094;28;20381;-69
2021/05/06 16:23:43;;;;;;;1.42;0.80;;;;;;;;;;5034721;28;20057;-70
2021/05/06 16:26:11;;;;;;;0.73;0.70;;;;;;;;;;5052643;28;20478;-70
2021/05/06 16:28:40;;;;;;;0.75;0.65;;;;;;;;;;5052971;28;20025;-70
2021/05/06 16:31:07;;;;;;;0.65;0.65;;;;;;;;;;5052928;28;20013;-70
2021/05/06 16:33:37;;;;;;;0.30;0.30;;;;;;;;;;5050729;28;20025;-73
2021/05/06 16:44:30;;;;;;;0.90;0.90;;;;;;;;;;5010833;28;20026;-70
2021/05/06 16:46:56;;;;;;;;;;;;;;;;;;5011151;28;20092;-70
2021/05/06 16:49:24;;;;;;;1.08;0.68;;;;;;;;;;5010677;28;19909;-73
2021/05/06 16:51:50;;;;;;;0.50;0.50;;;;;;;;;;5010538;28;20030;-70
2021/05/06 16:54:16;;;;;;;0.73;0.70;;;;;;;;;;5010550;28;20537;-70
2021/05/06 16:56:43;;;;;;;0.90;0.70;;;;;;;;;;4994111;28;20434;-73
2021/05/06 16:59:09;;;;;;;0.70;0.70;;;;;;;;;;5010477;28;20045;-70